Time;durP1;ratioP1;P1;durP2;ratioP2;P2;SDS_P1;SDS_P2;PMS_P1;PMS_P2;Temp;Humidity;BMP_temperature;BMP_pressure;BME280_temperature;BME280_humidity;BME280_pressure;Samples;Min_cycle;Max_cycle;Signal;HPM_P1;HPM_P2
2022/04/24 00:00:49;;;;;;;51.03;21.48;;;;;;;4.32;100.00;97972.69;4386097;32;20043;-76
2022/04/24 00:03:16;;;;;;;46.35;21.58;;;;;;;4.23;100.00;97955.44;4371636;32;20027;-74
2022/04/24 00:05:43;;;;;;;44.70;21.52;;;;;;;4.27;100.00;97961.09;4385362;32;20405;-74
2022/04/24 00:08:09;;;;;;;44.45;21.77;;;;;;;4.00;100.00;97921.66;4386485;32;20069;-74
2022/04/24 00:10:38;;;;;;;46.97;21.85;;;;;;;4.11;100.00;97947.44;4384444;32;20039;-74
2022/04/24 00:13:04;;;;;;;38.92;19.83;;;;;;;4.12;100.00;97958.94;4383778;32;20364;-75
2022/04/24 00:15:31;;;;;;;46.78;20.25;;;;;;;3.82;100.00;97917.28;4385798;32;20084;-75
2022/04/24 00:17:57;;;;;;;43.03;20.67;;;;;;;4.09;100.00;97959.41;4385167;32;20056;-74
2022/04/24 00:20:24;;;;;;;45.97;21.55;;;;;;;3.96;100.00;97952.47;4385563;32;20039;-74
2022/04/24 00:22:51;;;;;;;44.72;19.77;;;;;;;3.98;100.00;97964.50;4384420;32;20072;-73
2022/04/24 00:25:17;;;;;;;51.42;21.90;;;;;;;3.91;100.00;97963.00;4383973;32;20028;-73
2022/04/24 00:27:44;;;;;;;46.45;22.42;;;;;;;3.64;100.00;97915.56;4386259;32;20039;-73
2022/04/24 00:30:11;;;;;;;40.17;21.12;;;;;;;3.89;100.00;97955.22;4384964;32;20027;-74
2022/04/24 00:32:38;;;;;;;43.97;20.62;;;;;;;3.85;100.00;97953.28;4385473;32;20059;-75
2022/04/24 00:35:05;;;;;;;44.85;21.00;;;;;;;3.78;100.00;97942.72;4383062;32;20031;-77
2022/04/24 00:37:31;;;;;;;46.95;20.58;;;;;;;3.72;100.00;97943.66;4386110;32;20975;-75
2022/04/24 00:39:58;;;;;;;51.08;21.55;;;;;;;3.41;100.00;97900.38;4391161;32;20467;-75
2022/04/24 00:42:24;;;;;;;43.22;20.02;;;;;;;3.39;100.00;97899.81;4401330;32;20052;-75
2022/04/24 00:44:51;;;;;;;44.60;20.85;;;;;;;3.67;100.00;97947.03;4399478;32;20403;-77
2022/04/24 00:47:21;;;;;;;45.03;19.05;;;;;;;3.48;100.00;97909.06;4400062;32;20183;-75
2022/04/24 00:49:48;;;;;;;46.75;21.60;;;;;;;3.24;100.00;97857.72;4387209;32;20429;-75
2022/04/24 00:52:15;;;;;;;45.15;21.12;;;;;;;3.70;100.00;97941.25;4387641;32;20083;-74
2022/04/24 00:54:41;;;;;;;43.53;21.20;;;;;;;3.69;100.00;97938.81;4385734;32;20060;-77
2022/04/24 00:57:09;;;;;;;41.63;20.12;;;;;;;3.41;100.00;97906.50;4386024;32;20022;-74
2022/04/24 00:59:37;;;;;;;43.00;20.27;;;;;;;3.43;100.00;97898.28;4400701;32;20454;-76
2022/04/24 01:02:06;;;;;;;48.13;20.70;;;;;;;3.60;100.00;97935.69;4400575;32;20400;-74
2022/04/24 01:04:37;;;;;;;49.72;21.02;;;;;;;3.41;100.00;97908.38;4400714;32;20092;-74
2022/04/24 01:07:04;;;;;;;45.08;22.25;;;;;;;3.62;100.00;97933.59;4397739;32;20068;-74
2022/04/24 01:09:37;;;;;;;40.70;19.08;;;;;;;3.59;100.00;97929.56;4400545;32;20073;-73
2022/04/24 01:12:05;;;;;;;43.67;19.25;;;;;;;3.56;100.00;97938.00;4392483;32;20089;-74
2022/04/24 01:14:33;;;;;;;40.78;19.73;;;;;;;3.35;100.00;97895.97;4370253;32;20072;-75
2022/04/24 01:17:01;;;;;;;48.47;20.40;;;;;;;3.54;100.00;97931.28;4384459;32;20487;-73
2022/04/24 01:19:35;;;;;;;45.53;19.30;;;;;;;3.30;100.00;97898.53;4371596;32;20039;-73
2022/04/24 01:22:01;;;;;;;36.85;18.90;;;;;;;3.48;100.00;97927.72;4389769;32;20207;-74
2022/04/24 01:24:29;;;;;;;43.85;19.37;;;;;;;3.52;100.00;97936.84;4398621;32;20051;-75
2022/04/24 01:26:56;;;;;;;40.20;19.85;;;;;;;3.48;100.00;97927.72;4399955;32;20055;-74
2022/04/24 01:29:24;;;;;;;32.13;18.10;;;;;;;3.21;100.00;97885.56;4387071;32;20376;-73
2022/04/24 01:31:52;;;;;;;52.72;20.35;;;;;;;3.48;100.00;97926.88;4400415;32;20043;-74
2022/04/24 01:34:20;;;;;;;37.72;18.85;;;;;;;3.45;100.00;97925.50;4399653;32;20036;-75
2022/04/24 01:36:47;;;;;;;45.55;21.87;;;;;;;3.41;100.00;97916.34;4400189;32;20052;-74
2022/04/24 01:39:17;;;;;;;51.95;21.60;;;;;;;3.42;100.00;97931.28;4400829;32;20042;-74
2022/04/24 01:41:44;;;;;;;46.63;20.70;;;;;;;3.36;100.00;97929.53;4400980;32;20416;-73
2022/04/24 01:44:11;;;;;;;43.97;20.65;;;;;;;3.37;100.00;97933.84;4400422;32;20470;-74
2022/04/24 01:46:37;;;;;;;41.20;20.25;;;;;;;3.26;100.00;97930.91;4399539;32;20494;-76
2022/04/24 01:49:04;;;;;;;41.45;20.08;;;;;;;2.93;100.00;97878.22;4386665;32;20043;-75
2022/04/24 01:51:30;;;;;;;38.58;19.80;;;;;;;3.11;100.00;97916.41;4399160;32;20072;-74
2022/04/24 01:53:57;;;;;;;18.73;9.30;;;;;;;3.12;100.00;97915.41;4386967;32;20066;-74
2022/04/24 01:56:24;;;;;;;20.00;9.77;;;;;;;3.18;100.00;97880.69;4400231;32;20637;-76
2022/04/24 01:58:50;;;;;;;35.50;15.43;;;;;;;3.98;100.00;97923.75;4381925;32;20053;-75
2022/04/24 02:01:17;;;;;;;36.22;16.90;;;;;;;4.10;100.00;97918.38;4391993;32;20385;-74
2022/04/24 02:03:44;;;;;;;21.50;10.27;;;;;;;3.91;100.00;97901.72;4400886;32;20032;-73
2022/04/24 02:06:10;;;;;;;14.55;8.10;;;;;;;3.60;100.00;97877.91;4389407;32;20026;-73
2022/04/24 02:08:36;;;;;;;13.52;7.97;;;;;;;4.15;100.00;97910.50;4403179;32;20415;-75
2022/04/24 02:11:04;;;;;;;15.27;7.40;;;;;;;4.47;100.00;97918.88;4400670;32;20207;-74
2022/04/24 02:13:31;;;;;;;15.18;7.95;;;;;;;4.75;100.00;97916.44;4402220;32;20075;-74
2022/04/24 02:15:57;;;;;;;20.92;12.00;;;;;;;4.94;100.00;97925.84;4402811;32;20174;-74
2022/04/24 02:18:24;;;;;;;23.85;12.63;;;;;;;4.78;100.00;97881.31;4389826;32;20346;-73
2022/04/24 02:20:51;;;;;;;27.73;14.07;;;;;;;4.78;100.00;97914.09;4401727;32;20039;-75
2022/04/24 02:23:17;;;;;;;26.83;13.43;;;;;;;4.43;100.00;97922.25;4410216;32;20124;-73
2022/04/24 02:25:44;;;;;;;23.98;12.85;;;;;;;4.07;100.00;97929.50;4418160;32;20042;-75
2022/04/24 02:28:10;;;;;;;23.33;12.73;;;;;;;3.74;100.00;97904.31;4404546;32;20057;-73
2022/04/24 02:30:36;;;;;;;24.50;12.90;;;;;;;3.53;100.00;97877.25;4417274;32;20511;-73
2022/04/24 02:33:03;;;;;;;31.40;13.77;;;;;;;3.69;100.00;97922.84;4403868;32;20341;-75
2022/04/24 02:35:32;;;;;;;27.98;13.38;;;;;;;3.53;100.00;97914.50;4416000;32;20027;-73
2022/04/24 02:37:59;;;;;;;24.92;12.80;;;;;;;3.51;100.00;97911.28;4418291;32;20085;-73
2022/04/24 02:40:27;;;;;;;24.17;12.37;;;;;;;3.21;100.00;97874.94;4404582;32;20060;-74
2022/04/24 02:42:54;;;;;;;25.35;12.32;;;;;;;3.46;100.00;97921.78;4418232;32;20047;-74
2022/04/24 02:45:20;;;;;;;23.27;12.32;;;;;;;3.46;100.00;97913.78;4415931;32;20449;-75
2022/04/24 02:47:47;;;;;;;32.15;12.85;;;;;;;3.47;100.00;97919.94;4404578;32;20368;-73
2022/04/24 02:50:15;;;;;;;24.95;12.27;;;;;;;3.40;100.00;97920.06;4412174;32;20061;-73
2022/04/24 02:52:49;;;;;;;27.15;13.75;;;;;;;3.06;100.00;97866.56;4389175;32;20085;-72
2022/04/24 02:55:18;;;;;;;27.87;13.27;;;;;;;3.25;100.00;97918.63;4399525;32;20860;-75
2022/04/24 02:57:46;;;;;;;27.20;12.60;;;;;;;3.20;100.00;97902.56;4402657;32;20147;-73
2022/04/24 03:00:14;;;;;;;29.80;13.93;;;;;;;3.24;100.00;97916.22;4388843;32;20023;-72
2022/04/24 03:02:43;;;;;;;22.73;13.15;;;;;;;3.11;100.00;97906.59;4401740;32;20046;-73
2022/04/24 03:05:14;;;;;;;26.67;12.90;;;;;;;3.05;100.00;97907.53;4386992;32;20462;-75
2022/04/24 03:07:41;;;;;;;31.15;13.13;;;;;;;2.71;100.00;97864.66;4402576;32;20054;-74
2022/04/24 03:10:08;;;;;;;34.38;12.50;;;;;;;2.62;100.00;97860.72;4401877;32;20405;-74
2022/04/24 03:12:36;;;;;;;22.52;12.30;;;;;;;2.63;100.00;97860.50;4402604;32;20057;-75
2022/04/24 03:15:08;;;;;;;24.58;12.10;;;;;;;2.90;100.00;97903.44;4401013;32;20047;-76
2022/04/24 03:17:35;;;;;;;31.25;12.37;;;;;;;2.87;100.00;97901.25;4388813;32;20895;-74
2022/04/24 03:20:04;;;;;;;25.33;12.43;;;;;;;2.83;100.00;97897.41;4402107;32;20027;-76
2022/04/24 03:22:33;;;;;;;24.87;14.57;;;;;;;2.81;100.00;97886.19;4397092;32;20051;-74
2022/04/24 03:25:07;;;;;;;24.73;11.93;;;;;;;2.74;100.00;97888.13;4400665;32;20034;-76
2022/04/24 03:27:34;;;;;;;26.48;12.15;;;;;;;2.73;100.00;97887.31;4389069;32;20088;-75
2022/04/24 03:30:01;;;;;;;30.77;12.20;;;;;;;2.69;100.00;97886.16;4401723;32;20038;-75
2022/04/24 03:32:32;;;;;;;20.33;10.20;;;;;;;2.72;100.00;97892.88;4402433;32;20455;-75
2022/04/24 03:35:00;;;;;;;26.08;10.63;;;;;;;2.89;100.00;97877.09;4387308;32;20039;-75
2022/04/24 03:37:27;;;;;;;25.17;11.32;;;;;;;2.73;100.00;97842.13;4402034;32;20094;-75
2022/04/24 03:39:53;;;;;;;19.33;9.73;;;;;;;2.99;100.00;97892.47;4385715;32;20049;-75
2022/04/24 03:42:20;;;;;;;19.92;8.25;;;;;;;2.95;100.00;97878.00;4387121;32;20047;-75
2022/04/24 03:44:57;;;;;;;26.35;11.77;;;;;;;3.24;100.00;97879.78;4385077;32;20117;-74
2022/04/24 03:47:23;;;;;;;25.27;10.43;;;;;;;3.49;100.00;97881.41;4387208;32;20081;-74
2022/04/24 03:49:50;;;;;;;17.95;9.48;;;;;;;3.38;100.00;97876.88;4372561;32;20034;-75
2022/04/24 03:52:18;;;;;;;18.75;9.63;;;;;;;3.26;100.00;97877.69;4386989;32;20450;-74
2022/04/24 03:54:44;;;;;;;18.95;9.32;;;;;;;3.19;100.00;97845.09;4385018;32;20372;-76
2022/04/24 03:57:11;;;;;;;17.92;9.55;;;;;;;3.42;100.00;97875.41;4385871;32;20089;-75
2022/04/24 03:59:38;;;;;;;24.60;9.85;;;;;;;3.33;100.00;97874.13;4372864;32;20056;-75
2022/04/24 04:02:05;;;;;;;23.85;10.13;;;;;;;3.24;100.00;97877.13;4386616;32;20065;-74
2022/04/24 04:04:32;;;;;;;13.73;9.07;;;;;;;3.25;100.00;97864.63;4372799;32;20039;-74
2022/04/24 04:06:58;;;;;;;14.63;7.62;;;;;;;3.03;100.00;97837.78;4384526;32;20044;-77
2022/04/24 04:09:25;;;;;;;11.23;7.68;;;;;;;3.27;100.00;97858.03;4386392;32;20916;-74
2022/04/24 04:15:10;;;;;;;19.35;6.65;;;;;;;3.82;100.00;97875.47;4383488;32;20049;-74
2022/04/24 04:17:36;;;;;;;15.68;7.40;;;;;;;4.05;100.00;97879.12;4386486;32;20647;-74
2022/04/24 04:20:03;;;;;;;16.33;7.20;;;;;;;3.96;100.00;97830.75;4385567;32;20035;-78
2022/04/24 04:22:29;;;;;;;19.90;9.23;;;;;;;4.29;100.00;97866.56;4385190;32;20043;-74
2022/04/24 04:24:56;;;;;;;26.23;11.20;;;;;;;4.32;100.00;97863.44;4385232;32;20942;-75
2022/04/24 04:27:26;;;;;;;22.27;9.02;;;;;;;4.37;100.00;97857.34;4386215;32;20031;-74
2022/04/24 04:29:53;;;;;;;20.15;10.00;;;;;;;4.52;100.00;97867.50;4384887;32;20035;-74
2022/04/24 04:32:20;;;;;;;25.37;14.20;;;;;;;4.29;100.00;97826.59;4383988;32;20068;-77
2022/04/24 04:34:46;;;;;;;23.58;11.02;;;;;;;4.16;100.00;97826.84;4385861;32;20047;-74
2022/04/24 04:37:12;;;;;;;14.68;7.00;;;;;;;4.36;100.00;97882.41;4386359;32;20057;-74
2022/04/24 04:39:39;;;;;;;16.12;7.43;;;;;;;4.46;100.00;97884.47;4392286;32;20111;-73
2022/04/24 04:42:06;;;;;;;13.45;6.03;;;;;;;4.59;100.00;97878.03;4402484;32;20026;-73
2022/04/24 04:44:32;;;;;;;18.73;6.70;;;;;;;4.55;100.00;97867.03;4387093;32;20080;-77
2022/04/24 04:46:59;;;;;;;13.88;7.03;;;;;;;4.62;100.00;97873.03;4400480;32;20084;-74
2022/04/24 04:49:25;;;;;;;10.80;5.37;;;;;;;4.75;100.00;97868.44;4401083;32;20258;-74
2022/04/24 04:51:52;;;;;;;11.88;6.68;;;;;;;4.84;100.00;97872.34;4387805;32;20031;-74
2022/04/24 04:54:21;;;;;;;10.95;5.75;;;;;;;4.42;100.00;97792.69;4400649;32;20057;-75
2022/04/24 04:56:47;;;;;;;12.27;6.72;;;;;;;4.94;100.00;97864.50;4399958;32;20084;-74
2022/04/24 04:59:14;;;;;;;12.75;5.68;;;;;;;5.06;100.00;97857.22;4399604;32;20060;-75
2022/04/24 05:01:41;;;;;;;10.75;6.07;;;;;;;4.94;100.00;97821.81;4387715;32;20043;-73
2022/04/24 05:04:07;;;;;;;14.30;5.97;;;;;;;5.27;100.00;97863.69;4387591;32;20088;-73
2022/04/24 05:06:35;;;;;;;12.32;5.68;;;;;;;5.32;100.00;97862.97;4385648;32;20023;-74
2022/04/24 05:09:02;;;;;;;10.88;5.97;;;;;;;5.37;100.00;97868.38;4400926;32;20058;-73
2022/04/24 05:11:28;;;;;;;12.23;5.80;;;;;;;5.31;100.00;97837.31;4394909;32;20069;-73
2022/04/24 05:13:54;;;;;;;8.75;5.82;;;;;;;5.31;100.00;97821.31;4386066;32;20023;-73
2022/04/24 05:16:21;;;;;;;9.70;5.78;;;;;;;5.67;100.00;97872.53;4385677;32;20047;-73
2022/04/24 05:18:47;;;;;;;16.33;6.53;;;;;;;5.55;100.00;97837.13;4369692;32;20096;-73
2022/04/24 05:21:13;;;;;;;11.52;5.55;;;;;;;5.60;100.00;97830.00;4384604;32;20170;-74
2022/04/24 05:23:44;;;;;;;17.62;6.62;;;;;;;5.91;100.00;97867.78;4385657;32;20125;-73
2022/04/24 05:26:10;;;;;;;18.15;5.50;;;;;;;5.74;100.00;97819.75;4383128;32;20039;-73
2022/04/24 05:28:37;;;;;;;9.80;5.72;;;;;;;6.06;100.00;97859.16;4384798;32;20075;-74
2022/04/24 05:31:05;;;;;;;11.57;5.65;;;;;;;5.93;100.00;97838.16;4383138;32;20429;-74
2022/04/24 05:33:32;;;;;;;11.75;5.60;;;;;;;6.24;100.00;97875.94;4390745;32;20047;-73
2022/04/24 05:35:59;;;;;;;10.35;5.95;;;;;;;6.20;100.00;97858.81;4415345;32;20060;-73
2022/04/24 05:38:26;;;;;;;9.05;5.55;;;;;;;6.37;100.00;97878.25;4402056;32;20027;-75
2022/04/24 05:40:52;;;;;;;13.65;5.10;;;;;;;6.39;100.00;97878.00;4416193;32;20054;-74
2022/04/24 05:43:18;;;;;;;8.60;5.57;;;;;;;6.25;100.00;97846.28;4418541;32;20023;-73
2022/04/24 05:45:45;;;;;;;11.88;5.57;;;;;;;6.50;100.00;97879.72;4418026;32;20069;-73
2022/04/24 05:48:11;;;;;;;10.93;5.40;;;;;;;6.59;100.00;97872.88;4405436;32;20364;-73
2022/04/24 05:50:37;;;;;;;11.07;6.82;;;;;;;6.60;100.00;97860.31;4418256;32;20452;-74
2022/04/24 05:53:05;;;;;;;10.68;5.43;;;;;;;7.00;100.00;97893.84;4416241;32;20053;-74
2022/04/24 05:55:32;;;;;;;12.65;4.47;;;;;;;6.70;100.00;97855.88;4418927;32;20078;-74
2022/04/24 05:57:58;;;;;;;11.27;5.25;;;;;;;7.06;100.00;97899.00;4417115;32;20034;-74
2022/04/24 06:00:25;;;;;;;15.32;5.62;;;;;;;7.24;100.00;97900.50;4412984;32;20043;-73
2022/04/24 06:02:52;;;;;;;8.00;4.20;;;;;;;7.38;100.00;97900.06;4391249;32;20429;-74
2022/04/24 06:05:19;;;;;;;12.93;4.82;;;;;;;7.50;100.00;97908.72;4392370;32;20310;-73
2022/04/24 06:07:45;;;;;;;12.45;5.60;;;;;;;7.55;100.00;97895.38;4392496;32;20076;-75
2022/04/24 06:10:12;;;;;;;11.80;5.35;;;;;;;7.59;100.00;97869.66;4391853;32;20043;-72
2022/04/24 06:12:50;;;;;;;14.27;5.30;;;;;;;7.96;100.00;97921.59;4392573;32;20061;-73
2022/04/24 06:15:21;;;;;;;14.00;5.45;;;;;;;8.04;100.00;97907.72;4392309;32;20054;-73
2022/04/24 06:17:52;;;;;;;11.50;5.45;;;;;;;8.04;100.00;97906.91;4391554;32;20087;-73
2022/04/24 06:20:21;;;;;;;10.68;6.00;;;;;;;8.13;100.00;97916.06;4391313;32;20023;-73
2022/04/24 06:22:49;;;;;;;10.35;5.95;;;;;;;8.16;100.00;97915.53;4392400;32;20063;-74
2022/04/24 06:25:17;;;;;;;9.43;5.87;;;;;;;8.08;100.00;97883.88;4391195;32;20023;-73
2022/04/24 06:27:45;;;;;;;12.32;5.25;;;;;;;8.34;100.00;97915.09;4390524;32;20046;-73
2022/04/24 06:30:12;;;;;;;7.65;5.45;;;;;;;8.43;100.00;97922.63;4392071;32;20043;-75
2022/04/24 06:32:39;;;;;;;8.73;5.53;;;;;;;8.46;100.00;97927.50;4391955;32;20039;-73
2022/04/24 06:35:09;;;;;;;9.80;5.65;;;;;;;8.61;100.00;97929.44;4391551;32;20035;-73
2022/04/24 06:37:37;;;;;;;9.77;6.35;;;;;;;8.68;100.00;97927.28;4390966;32;20394;-72
2022/04/24 06:40:08;;;;;;;8.90;6.28;;;;;;;8.67;100.00;97921.13;4391963;32;20032;-73
2022/04/24 06:42:46;;;;;;;9.15;5.65;;;;;;;8.77;100.00;97916.84;4392109;32;20034;-73
2022/04/24 06:45:12;;;;;;;8.45;6.07;;;;;;;8.82;100.00;97906.13;4391916;32;20037;-73
2022/04/24 06:47:39;;;;;;;11.15;7.15;;;;;;;8.86;100.00;97902.66;4390808;32;20081;-74
2022/04/24 06:50:06;;;;;;;14.07;7.40;;;;;;;9.02;100.00;97911.53;4378012;32;20052;-73
2022/04/24 06:52:32;;;;;;;15.02;7.93;;;;;;;8.96;100.00;97885.75;4378206;32;20053;-73
2022/04/24 06:55:00;;;;;;;11.65;6.60;;;;;;;9.07;100.00;97898.09;4391678;32;20065;-73
2022/04/24 06:57:27;;;;;;;12.60;7.97;;;;;;;8.95;100.00;97865.34;4391758;32;20089;-73
2022/04/24 06:59:53;;;;;;;22.08;7.60;;;;;;;9.07;100.00;97871.25;4391601;32;20073;-73
2022/04/24 07:02:26;;;;;;;9.57;6.47;;;;;;;9.13;100.00;97863.22;4391251;32;20038;-72
2022/04/24 07:04:52;;;;;;;8.73;5.80;;;;;;;9.47;100.00;97892.22;4391625;32;20080;-72
2022/04/24 07:07:19;;;;;;;9.70;5.97;;;;;;;9.29;100.00;97856.75;4377997;32;20124;-73
2022/04/24 07:09:45;;;;;;;4.30;3.72;;;;;;;9.63;100.00;97893.78;4390989;32;20365;-74
2022/04/24 07:12:12;;;;;;;9.10;5.20;;;;;;;9.62;100.00;97897.53;4390820;32;20427;-73
2022/04/24 07:14:38;;;;;;;8.93;5.37;;;;;;;9.75;100.00;97902.38;4377932;32;20498;-73
2022/04/24 07:26:33;;;;;;;7.25;4.80;;;;;;;10.31;100.00;97903.31;4375943;32;20058;-74
2022/04/24 07:28:59;;;;;;;6.30;4.93;;;;;;;10.33;100.00;97883.13;4375834;32;20039;-73
2022/04/24 07:31:26;;;;;;;10.63;5.53;;;;;;;10.34;100.00;97884.75;4362753;32;20044;-73
2022/04/24 07:33:55;;;;;;;7.10;5.60;;;;;;;10.39;100.00;97892.00;4375195;32;20031;-73
2022/04/24 07:36:21;;;;;;;9.90;5.07;;;;;;;10.38;100.00;97887.69;4375124;32;20307;-74
2022/04/24 07:38:50;;;;;;;7.60;5.30;;;;;;;10.57;100.00;97889.75;4376027;32;20489;-73
2022/04/24 07:41:17;;;;;;;6.57;4.47;;;;;;;10.63;100.00;97894.03;4376004;32;20048;-74
2022/04/24 07:43:48;;;;;;;6.00;4.72;;;;;;;10.57;100.00;97879.00;4375563;32;20035;-74
2022/04/24 07:46:15;;;;;;;6.22;4.90;;;;;;;10.52;100.00;97880.63;4376024;32;20038;-73
2022/04/24 07:48:42;;;;;;;5.25;4.70;;;;;;;10.36;100.00;97836.84;4376199;32;20040;-73
2022/04/24 07:51:08;;;;;;;8.02;5.15;;;;;;;10.73;100.00;97877.81;4375010;32;20397;-74
2022/04/24 07:53:36;;;;;;;6.40;4.78;;;;;;;10.82;100.00;97873.44;4373480;32;20037;-73
2022/04/24 07:56:03;;;;;;;4.70;3.12;;;;;;;10.67;100.00;97820.53;4375039;32;20052;-74
2022/04/24 07:58:36;;;;;;;3.72;3.17;;;;;;;10.77;100.00;97830.41;4375846;32;20370;-74
2022/04/24 08:01:03;;;;;;;3.25;2.90;;;;;;;11.06;100.00;97870.06;4374808;32;20387;-73
2022/04/24 08:03:29;;;;;;;2.72;2.53;;;;;;;11.09;100.00;97864.09;4374049;32;20429;-74
2022/04/24 08:05:56;;;;;;;3.60;3.17;;;;;;;11.16;100.00;97863.78;4375828;32;20061;-73
2022/04/24 08:08:23;;;;;;;6.45;3.97;;;;;;;11.02;100.00;97825.91;4375424;32;20035;-74
2022/04/24 08:10:53;;;;;;;3.83;3.53;;;;;;;11.00;100.00;97830.78;4374609;32;20089;-75
2022/04/24 08:13:20;;;;;;;3.67;3.37;;;;;;;11.34;100.00;97859.59;4375755;32;20035;-75
2022/04/24 08:15:48;;;;;;;6.25;3.45;;;;;;;11.33;100.00;97847.19;4374159;32;20053;-75
2022/04/24 08:18:16;;;;;;;8.32;3.80;;;;;;;11.18;100.00;97862.41;4362199;32;20062;-74
2022/04/24 08:20:43;;;;;;;5.78;3.65;;;;;;;11.13;100.00;97854.34;4361937;32;20058;-74
2022/04/24 08:23:12;;;;;;;4.18;3.62;;;;;;;11.30;100.00;97853.16;4360583;32;20388;-75
2022/04/24 08:25:39;;;;;;;3.60;3.28;;;;;;;11.07;100.00;97863.56;4375439;32;20082;-74
2022/04/24 08:28:08;;;;;;;9.55;3.10;;;;;;;11.20;100.00;97857.56;4375204;32;20032;-74
2022/04/24 08:30:38;;;;;;;3.87;3.53;;;;;;;11.38;100.00;97855.25;4374093;32;20019;-74
2022/04/24 08:33:12;;;;;;;2.72;2.45;;;;;;;11.11;100.00;97813.44;4375519;32;20045;-75
2022/04/24 08:35:39;;;;;;;5.05;2.80;;;;;;;11.19;100.00;97853.22;4374387;32;20491;-75
2022/04/24 08:38:05;;;;;;;5.15;3.55;;;;;;;11.12;100.00;97847.38;4360081;32;20032;-74
2022/04/24 08:40:32;;;;;;;3.95;3.03;;;;;;;11.37;100.00;97856.31;4381258;32;20043;-75
2022/04/24 08:43:00;;;;;;;6.10;2.90;;;;;;;11.37;100.00;97850.94;4375849;32;20078;-74
2022/04/24 08:45:28;;;;;;;3.47;3.00;;;;;;;11.21;100.00;97861.84;4388544;32;20061;-74
2022/04/24 08:47:56;;;;;;;2.55;2.35;;;;;;;11.10;100.00;97857.63;4390089;32;20043;-74
2022/04/24 08:53:54;;;;;;;3.30;2.97;;;;;;;11.12;100.00;97839.31;4390219;32;20061;-75
2022/04/24 08:56:21;;;;;;;3.22;2.35;;;;;;;11.20;100.00;97837.88;4389192;32;20069;-75
2022/04/24 08:58:48;;;;;;;2.78;2.58;;;;;;;11.19;100.00;97799.34;4376169;32;20079;-75
2022/04/24 09:01:14;;;;;;;2.70;2.42;;;;;;;11.58;100.00;97835.34;4388805;32;20043;-74
2022/04/24 09:03:42;;;;;;;3.50;2.60;;;;;;;11.45;100.00;97807.19;4376398;32;20069;-74
2022/04/24 09:06:22;;;;;;;3.17;2.35;;;;;;;11.51;100.00;97833.00;4375549;32;20062;-74
2022/04/24 09:08:48;;;;;;;3.28;2.12;;;;;;;11.61;100.00;97835.59;4389241;32;20059;-74
2022/04/24 09:11:17;;;;;;;2.25;2.05;;;;;;;11.78;100.00;97842.44;4388641;32;20388;-74
2022/04/24 09:16:37;;;;;;;4.00;2.67;;;;;;;11.47;100.00;97794.22;4388210;32;20019;-74
2022/04/24 09:19:15;;;;;;;3.90;2.80;;;;;;;11.85;100.00;97856.38;4388646;32;20033;-74
2022/04/24 09:21:42;;;;;;;3.00;2.78;;;;;;;11.93;100.00;97866.56;4388285;32;20065;-74
2022/04/24 09:24:08;;;;;;;3.53;2.50;;;;;;;12.25;100.00;97859.72;4374579;32;20078;-73
2022/04/24 09:26:35;;;;;;;4.32;2.45;;;;;;;12.13;100.00;97826.97;4389645;32;20097;-74
2022/04/24 09:29:10;;;;;;;4.80;2.70;;;;;;;12.11;100.00;97848.00;4389575;32;20048;-74
2022/04/24 09:31:36;;;;;;;4.03;2.25;;;;;;;12.21;100.00;97864.09;4388216;32;20459;-74
2022/04/24 09:34:03;;;;;;;3.15;2.20;;;;;;;12.24;100.00;97863.53;4390026;32;20068;-74
2022/04/24 09:36:29;;;;;;;4.43;2.55;;;;;;;12.21;100.00;97860.59;4388203;32;20159;-74
2022/04/24 09:38:56;;;;;;;2.40;2.10;;;;;;;12.20;100.00;97822.00;4388386;32;20069;-74
2022/04/24 09:41:23;;;;;;;3.87;2.75;;;;;;;12.51;100.00;97859.41;4376103;32;20039;-74
2022/04/24 09:43:50;;;;;;;2.35;2.17;;;;;;;12.66;100.00;97859.19;4389865;32;20345;-74
2022/04/24 09:46:25;;;;;;;2.58;2.35;;;;;;;12.60;100.00;97857.63;4376120;32;20023;-74
2022/04/24 09:48:53;;;;;;;2.12;2.03;;;;;;;12.80;100.00;97861.16;4389891;32;20085;-74
2022/04/24 09:51:22;;;;;;;3.78;2.45;;;;;;;12.77;100.00;97851.72;4389048;32;20035;-74
2022/04/24 09:53:50;;;;;;;8.35;2.55;;;;;;;12.75;100.00;97820.69;4389426;32;20537;-73
2022/04/24 09:56:18;;;;;;;2.72;2.10;;;;;;;13.07;100.00;97823.44;4376150;32;20057;-74
2022/04/24 09:58:45;;;;;;;5.32;2.40;;;;;;;12.93;100.00;97838.81;4388994;32;20023;-74
2022/04/24 10:01:12;;;;;;;2.60;2.40;;;;;;;12.58;100.00;97859.84;4387851;32;20379;-74
2022/04/24 10:03:40;;;;;;;1.87;1.77;;;;;;;12.87;100.00;97856.19;4376275;32;20046;-74
2022/04/24 10:06:07;;;;;;;7.15;2.42;;;;;;;13.41;100.00;97871.00;4387950;32;20039;-74
2022/04/24 10:08:34;;;;;;;3.75;1.67;;;;;;;13.15;100.00;97840.88;4376039;32;20380;-74
2022/04/24 10:11:05;;;;;;;4.65;3.12;;;;;;;13.68;100.00;97880.28;4388125;32;20088;-74
2022/04/24 10:13:36;;;;;;;9.10;2.45;;;;;;;13.31;100.00;97865.75;4389505;32;20011;-74
2022/04/24 10:16:21;;;;;;;2.50;2.30;;;;;;;13.12;100.00;97873.13;4374415;32;20039;-74
2022/04/24 10:19:06;;;;;;;2.95;2.70;;;;;;;13.19;100.00;97865.41;4389919;32;20341;-74
2022/04/24 10:21:57;;;;;;;2.60;2.40;;;;;;;13.36;100.00;97829.75;4375817;32;20032;-74
2022/04/24 10:24:24;;;;;;;2.08;1.98;;;;;;;13.81;100.00;97819.97;4389463;32;20019;-74
2022/04/24 10:26:55;;;;;;;4.22;1.80;;;;;;;13.89;100.00;97855.56;4390400;32;20043;-74
2022/04/24 10:29:22;;;;;;;1.80;1.70;;;;;;;13.78;100.00;97855.75;4378810;32;20024;-74
2022/04/24 10:31:49;;;;;;;2.92;2.62;;;;;;;13.97;100.00;97838.63;4391807;32;20047;-74
2022/04/24 10:34:17;;;;;;;11.65;2.20;;;;;;;13.92;100.00;97808.97;4378468;32;20028;-74
2022/04/24 10:36:54;;;;;;;2.62;2.42;;;;;;;14.04;100.00;97793.03;4391837;32;20403;-74
2022/04/24 10:39:23;;;;;;;2.78;1.80;;;;;;;14.53;100.00;97818.53;4391182;32;20048;-74
2022/04/24 10:42:14;;;;;;;2.00;1.83;;;;;;;14.63;100.00;97824.81;4391964;32;20483;-74
2022/04/24 10:44:51;;;;;;;2.60;2.35;;;;;;;15.03;100.00;97816.84;4370560;32;20333;-74
2022/04/24 10:47:17;;;;;;;1.92;1.83;;;;;;;15.09;100.00;97791.22;4378543;32;20038;-74
2022/04/24 10:49:44;;;;;;;2.37;2.10;;;;;;;15.03;100.00;97816.84;4391846;32;20064;-74
2022/04/24 10:55:42;;;;;;;1.60;1.50;;;;;;;15.51;98.67;97799.09;4391949;32;20089;-74
2022/04/24 10:58:10;;;;;;;2.12;1.92;;;;;;;15.57;98.17;97801.38;4392138;32;20078;-74
2022/04/24 11:00:38;;;;;;;3.15;2.10;;;;;;;15.81;100.00;97800.19;4391825;32;20387;-74
2022/04/24 11:03:13;;;;;;;2.12;2.03;;;;;;;15.84;100.00;97788.72;4392321;32;20065;-74
2022/04/24 11:05:46;;;;;;;1.92;1.83;;;;;;;15.23;100.00;97737.69;4391825;32;20019;-74
2022/04/24 11:08:20;;;;;;;2.55;2.30;;;;;;;16.06;100.00;97738.16;4391620;32;20054;-74
2022/04/24 11:10:49;;;;;;;2.00;1.80;;;;;;;16.70;98.17;97776.41;4390772;32;20042;-74
2022/04/24 11:13:18;;;;;;;1.73;1.62;;;;;;;16.99;97.58;97755.94;4391922;32;20062;-75
2022/04/24 11:15:47;;;;;;;2.05;1.95;;;;;;;17.16;91.01;97736.03;4391096;32;20020;-74
2022/04/24 11:18:23;;;;;;;2.12;2.03;;;;;;;16.73;89.07;97774.94;4390134;32;20065;-72
2022/04/24 11:20:58;;;;;;;2.00;1.90;;;;;;;16.44;91.14;97775.59;4390552;32;20173;-75
2022/04/24 11:23:26;;;;;;;2.35;1.70;;;;;;;16.23;91.41;97756.41;4378139;32;20019;-75
2022/04/24 11:25:54;;;;;;;2.15;2.05;;;;;;;16.79;87.74;97767.44;4391370;32;20380;-74
2022/04/24 11:28:32;;;;;;;2.70;2.00;;;;;;;17.18;83.96;97766.44;4390792;32;20061;-74
2022/04/24 11:31:08;;;;;;;4.75;2.00;;;;;;;17.45;81.53;97763.62;4391314;32;20023;-74
2022/04/24 11:33:48;;;;;;;2.20;2.10;;;;;;;16.59;90.21;97731.63;4377728;32;20031;-74
2022/04/24 11:36:15;;;;;;;3.00;2.60;;;;;;;16.50;91.97;97744.44;4390524;32;20027;-74
2022/04/24 11:38:46;;;;;;;3.45;2.33;;;;;;;15.80;97.62;97700.91;4375832;32;20333;-74
2022/04/24 11:41:14;;;;;;;2.15;1.60;;;;;;;16.32;97.63;97739.00;4376912;32;20050;-74
2022/04/24 11:43:42;;;;;;;3.35;2.05;;;;;;;16.74;93.85;97734.97;4389553;32;20059;-74
2022/04/24 11:51:39;;;;;;;2.42;2.25;;;;;;;17.49;86.36;97734.66;4375378;32;20015;-74
2022/04/24 11:54:09;;;;;;;3.78;1.65;;;;;;;17.53;80.14;97692.03;4362259;32;20046;-73
2022/04/24 11:56:37;;;;;;;2.22;2.03;;;;;;;16.67;84.93;97695.50;4374453;32;20047;-73